KDVT/DVT METAR and TAF weather

Enter ICAO airport designator
Station Type Date Time Source
KDVT METAR 2021/10/22 18:53 UTC NOAA

KDVT 221853Z 21004KT 10SM CLR 27/02 A2997 RMK AO2 SLP128 T02670022


Station Type Date Time Source
KDVT Decoded METAR 2021/10/22 18:53 UTC NOAA

PHOENIX-DEER VALLEY MUN, AZ, United States (KDVT) 33-41N 112-04W 443M
Oct 22, 2021 - 02:53 PM EDT / 2021.10.22 1853 UTC
Wind: from the SSW (210 degrees) at 5 MPH (4 KT):0
Visibility: 10 mile(s):0
Sky conditions: clear
Temperature: 80.1 F (26.7 C)
Dew Point: 36.0 F (2.2 C)
Relative Humidity: 20%
Pressure (altimeter): 29.97 in. Hg (1014 hPa)
ob: KDVT 221853Z 21004KT 10SM CLR 27/02 A2997 RMK AO2 SLP128 T02670022
cycle: 19

Station Type Date Time Source
KDVT TAF 2021/10/22 18:42 UTC NOAA

TAF KDVT 221740Z 2218/2318 18004KT P6SM SCT250
FM222100 24006KT P6SM SCT250
FM230500 07005KT P6SM SCT250

Example: see airport list